Greensburg, Kansas
Current Conditions -  °F | °C
As of 3:35 AM on Monday 22 Dec 2014 (Local Time) from KPTT Reporting Station
Moderate Fog Moderate Fog  
Wind Chill: 39°   Ceiling: 200
Heat Index: 43°   Visibility: 0.5mi
Dew Point: 43°   Wind: 6mph
Humidity: 100%   Direction: 180°S
Pressure: 29.56"   Gusts: NA
Location:  37.6°N, 99.29°W
Report Text: KPTT 220935Z AUTO 18005KT 1/2SM FG OVC002 06/06 A2956 RMK AO2
Loading
Personal Weather Stations






























Interactive Weather Map New forecast layout! Learn more

10-Day Weather Forecast

Advertisements
Track Severe Weather on mobile